Springhill, Canada
Current Conditions -  °F | °C
As of 10:00 PM on Tuesday 21 Oct 2014 (Local Time) from CYQM Reporting Station
Overcast Overcast  
Wind Chill: 39°   Ceiling: 14000
Heat Index: 43°   Visibility: 15mi
Dew Point: 36°   Wind: 6mph
Humidity: 76%   Direction: 90°E
Pressure: 30.24"   Gusts: NA
Location:  45.65°N, 64.06°W
Report Text: CYQM 220100Z 09005KT 15SM SCT059 OVC140 06/02 A3024 RMK SC3AC5 SLP243
Loading
Personal Weather Stations






























Interactive Weather Map
Tropical Storm Tracking
New forecast layout! Learn more

10-Day Weather Forecast

Advertisements
Track Severe Weather on mobile